sensor_id;sensor_type;location;lat;lon;timestamp;temperature;humidity
14049;DHT22;7099;53.922;10.728;2023-03-16T00:02:28;1.20;67.50
14049;DHT22;7099;53.922;10.728;2023-03-16T00:06:33;1.10;67.80
14049;DHT22;7099;53.922;10.728;2023-03-16T00:10:41;1.10;67.70
14049;DHT22;7099;53.922;10.728;2023-03-16T00:14:51;1.00;67.40
14049;DHT22;7099;53.922;10.728;2023-03-16T00:18:58;1.00;67.40
14049;DHT22;7099;53.922;10.728;2023-03-16T00:23:03;1.00;67.40
14049;DHT22;7099;53.922;10.728;2023-03-16T00:27:11;1.00;67.40
14049;DHT22;7099;53.922;10.728;2023-03-16T00:31:21;0.90;67.30
14049;DHT22;7099;53.922;10.728;2023-03-16T00:35:29;0.90;67.50
14049;DHT22;7099;53.922;10.728;2023-03-16T00:39:39;0.80;67.60
14049;DHT22;7099;53.922;10.728;2023-03-16T00:43:45;0.80;67.80
14049;DHT22;7099;53.922;10.728;2023-03-16T00:47:52;0.80;67.90
14049;DHT22;7099;53.922;10.728;2023-03-16T00:51:58;0.70;68.50
14049;DHT22;7099;53.922;10.728;2023-03-16T00:56:04;0.70;68.20
14049;DHT22;7099;53.922;10.728;2023-03-16T01:00:11;0.60;68.20
14049;DHT22;7099;53.922;10.728;2023-03-16T01:04:19;0.60;68.30
14049;DHT22;7099;53.922;10.728;2023-03-16T01:08:26;0.60;68.60
14049;DHT22;7099;53.922;10.728;2023-03-16T01:12:34;0.50;68.60
14049;DHT22;7099;53.922;10.728;2023-03-16T01:16:40;0.50;69.40
14049;DHT22;7099;53.922;10.728;2023-03-16T01:20:45;0.50;68.80
14049;DHT22;7099;53.922;10.728;2023-03-16T01:24:54;0.40;68.40
14049;DHT22;7099;53.922;10.728;2023-03-16T01:29:00;0.40;68.90
14049;DHT22;7099;53.922;10.728;2023-03-16T01:33:06;0.40;68.80
14049;DHT22;7099;53.922;10.728;2023-03-16T01:37:12;0.30;68.60
14049;DHT22;7099;53.922;10.728;2023-03-16T01:41:17;0.30;69.20
14049;DHT22;7099;53.922;10.728;2023-03-16T01:46:43;0.20;68.50
14049;DHT22;7099;53.922;10.728;2023-03-16T01:50:24;0.20;68.60
14049;DHT22;7099;53.922;10.728;2023-03-16T01:54:41;0.10;68.80
14049;DHT22;7099;53.922;10.728;2023-03-16T01:58:56;0.10;69.30
14049;DHT22;7099;53.922;10.728;2023-03-16T02:03:13;0.10;69.80
14049;DHT22;7099;53.922;10.728;2023-03-16T02:07:22;0.00;69.50
14049;DHT22;7099;53.922;10.728;2023-03-16T02:11:30;0.00;69.00
14049;DHT22;7099;53.922;10.728;2023-03-16T02:15:36;-0.10;68.50
14049;DHT22;7099;53.922;10.728;2023-03-16T02:24:27;-0.10;68.70
14049;DHT22;7099;53.922;10.728;2023-03-16T02:33:16;-0.20;69.30
14049;DHT22;7099;53.922;10.728;2023-03-16T02:37:22;-0.20;69.10
14049;DHT22;7099;53.922;10.728;2023-03-16T02:41:28;-0.30;69.00
14049;DHT22;7099;53.922;10.728;2023-03-16T02:45:51;-0.40;68.70
14049;DHT22;7099;53.922;10.728;2023-03-16T02:49:58;-0.40;69.20
14049;DHT22;7099;53.922;10.728;2023-03-16T02:54:04;-0.40;69.60
14049;DHT22;7099;53.922;10.728;2023-03-16T02:58:10;-0.40;69.80
14049;DHT22;7099;53.922;10.728;2023-03-16T03:02:17;-0.40;69.70
14049;DHT22;7099;53.922;10.728;2023-03-16T03:06:22;-0.50;69.60
14049;DHT22;7099;53.922;10.728;2023-03-16T03:10:29;-0.50;69.80
14049;DHT22;7099;53.922;10.728;2023-03-16T03:14:35;-0.50;69.70
14049;DHT22;7099;53.922;10.728;2023-03-16T03:18:44;-0.50;69.50
14049;DHT22;7099;53.922;10.728;2023-03-16T03:22:50;-0.60;69.50
14049;DHT22;7099;53.922;10.728;2023-03-16T03:26:56;-0.60;69.50
14049;DHT22;7099;53.922;10.728;2023-03-16T03:31:04;-0.60;69.40
14049;DHT22;7099;53.922;10.728;2023-03-16T03:35:11;-0.60;69.40
14049;DHT22;7099;53.922;10.728;2023-03-16T03:39:18;-0.70;69.20
14049;DHT22;7099;53.922;10.728;2023-03-16T03:43:23;-0.70;69.20
14049;DHT22;7099;53.922;10.728;2023-03-16T03:47:29;-0.70;69.20
14049;DHT22;7099;53.922;10.728;2023-03-16T03:51:35;-0.70;69.20
14049;DHT22;7099;53.922;10.728;2023-03-16T03:55:42;-0.80;69.00
14049;DHT22;7099;53.922;10.728;2023-03-16T03:59:47;-0.80;69.40
14049;DHT22;7099;53.922;10.728;2023-03-16T04:03:53;-0.80;69.40
14049;DHT22;7099;53.922;10.728;2023-03-16T04:07:58;-0.80;69.50
14049;DHT22;7099;53.922;10.728;2023-03-16T04:12:04;-0.80;69.60
14049;DHT22;7099;53.922;10.728;2023-03-16T04:16:10;-0.80;69.60
14049;DHT22;7099;53.922;10.728;2023-03-16T04:20:20;-0.80;69.50
14049;DHT22;7099;53.922;10.728;2023-03-16T04:24:27;-0.90;69.30
14049;DHT22;7099;53.922;10.728;2023-03-16T04:28:33;-0.90;69.20
14049;DHT22;7099;53.922;10.728;2023-03-16T04:32:39;-0.90;69.40
14049;DHT22;7099;53.922;10.728;2023-03-16T04:36:45;-0.90;69.30
14049;DHT22;7099;53.922;10.728;2023-03-16T04:40:51;-0.90;69.70
14049;DHT22;7099;53.922;10.728;2023-03-16T04:44:56;-1.00;70.60
14049;DHT22;7099;53.922;10.728;2023-03-16T04:49:02;-1.00;70.40
14049;DHT22;7099;53.922;10.728;2023-03-16T04:53:07;-0.90;70.20
14049;DHT22;7099;53.922;10.728;2023-03-16T04:57:13;-0.90;70.50
14049;DHT22;7099;53.922;10.728;2023-03-16T05:01:18;-0.90;70.50
14049;DHT22;7099;53.922;10.728;2023-03-16T05:05:24;-0.90;70.60
14049;DHT22;7099;53.922;10.728;2023-03-16T05:09:29;-0.90;70.40
14049;DHT22;7099;53.922;10.728;2023-03-16T05:13:35;-0.90;70.30
14049;DHT22;7099;53.922;10.728;2023-03-16T05:17:41;-1.00;70.00
14049;DHT22;7099;53.922;10.728;2023-03-16T05:21:46;-1.00;69.80
14049;DHT22;7099;53.922;10.728;2023-03-16T05:25:52;-1.00;70.00
14049;DHT22;7099;53.922;10.728;2023-03-16T05:29:57;-1.00;70.30
14049;DHT22;7099;53.922;10.728;2023-03-16T05:34:03;-1.00;70.30
14049;DHT22;7099;53.922;10.728;2023-03-16T05:38:08;-1.00;70.20
14049;DHT22;7099;53.922;10.728;2023-03-16T05:42:14;-1.00;70.80
14049;DHT22;7099;53.922;10.728;2023-03-16T05:46:19;-1.10;70.80
14049;DHT22;7099;53.922;10.728;2023-03-16T05:50:25;-1.00;71.00
14049;DHT22;7099;53.922;10.728;2023-03-16T05:54:31;-1.00;70.60
14049;DHT22;7099;53.922;10.728;2023-03-16T05:58:37;-1.00;70.50
14049;DHT22;7099;53.922;10.728;2023-03-16T06:02:44;-1.00;70.60
14049;DHT22;7099;53.922;10.728;2023-03-16T06:06:52;-1.00;70.90
14049;DHT22;7099;53.922;10.728;2023-03-16T06:10:57;-1.00;71.70
14049;DHT22;7099;53.922;10.728;2023-03-16T06:15:04;-1.00;72.40
14049;DHT22;7099;53.922;10.728;2023-03-16T06:19:12;-0.90;72.40
14049;DHT22;7099;53.922;10.728;2023-03-16T06:23:17;-0.80;72.50
14049;DHT22;7099;53.922;10.728;2023-03-16T06:27:24;-0.80;72.50
14049;DHT22;7099;53.922;10.728;2023-03-16T06:31:30;-0.70;72.80
14049;DHT22;7099;53.922;10.728;2023-03-16T06:35:38;-0.60;72.50
14049;DHT22;7099;53.922;10.728;2023-03-16T06:39:43;-0.60;72.30
14049;DHT22;7099;53.922;10.728;2023-03-16T06:43:49;-0.50;72.60
14049;DHT22;7099;53.922;10.728;2023-03-16T06:47:55;-0.40;72.70
14049;DHT22;7099;53.922;10.728;2023-03-16T06:52:00;-0.30;73.00
14049;DHT22;7099;53.922;10.728;2023-03-16T06:56:07;-0.20;73.00
14049;DHT22;7099;53.922;10.728;2023-03-16T07:00:13;-0.10;73.30
14049;DHT22;7099;53.922;10.728;2023-03-16T07:04:19;0.10;73.90
14049;DHT22;7099;53.922;10.728;2023-03-16T07:08:26;0.20;74.00
14049;DHT22;7099;53.922;10.728;2023-03-16T07:12:31;0.30;74.00
14049;DHT22;7099;53.922;10.728;2023-03-16T07:16:37;0.40;74.00
14049;DHT22;7099;53.922;10.728;2023-03-16T07:20:42;0.60;74.10
14049;DHT22;7099;53.922;10.728;2023-03-16T07:24:48;0.70;74.50
14049;DHT22;7099;53.922;10.728;2023-03-16T07:29:01;0.80;74.70
14049;DHT22;7099;53.922;10.728;2023-03-16T07:33:10;1.00;74.80
14049;DHT22;7099;53.922;10.728;2023-03-16T07:37:16;1.10;75.10
14049;DHT22;7099;53.922;10.728;2023-03-16T07:41:29;1.30;73.60
14049;DHT22;7099;53.922;10.728;2023-03-16T07:45:37;1.40;73.50
14049;DHT22;7099;53.922;10.728;2023-03-16T07:49:42;1.60;73.30
14049;DHT22;7099;53.922;10.728;2023-03-16T07:53:48;1.70;73.20
14049;DHT22;7099;53.922;10.728;2023-03-16T07:57:54;1.90;72.90
14049;DHT22;7099;53.922;10.728;2023-03-16T08:01:59;2.00;72.30
14049;DHT22;7099;53.922;10.728;2023-03-16T08:06:05;2.20;71.70
14049;DHT22;7099;53.922;10.728;2023-03-16T08:10:11;2.40;71.70
14049;DHT22;7099;53.922;10.728;2023-03-16T08:14:16;2.60;71.50
14049;DHT22;7099;53.922;10.728;2023-03-16T08:18:25;2.80;71.40
14049;DHT22;7099;53.922;10.728;2023-03-16T08:22:31;3.00;70.40
14049;DHT22;7099;53.922;10.728;2023-03-16T08:26:37;3.10;69.80
14049;DHT22;7099;53.922;10.728;2023-03-16T08:30:45;3.30;70.20
14049;DHT22;7099;53.922;10.728;2023-03-16T08:34:55;3.50;68.90
14049;DHT22;7099;53.922;10.728;2023-03-16T08:39:03;3.70;68.60
14049;DHT22;7099;53.922;10.728;2023-03-16T08:43:11;3.90;68.10
14049;DHT22;7099;53.922;10.728;2023-03-16T08:47:17;4.10;67.90
14049;DHT22;7099;53.922;10.728;2023-03-16T08:51:23;4.30;66.60
14049;DHT22;7099;53.922;10.728;2023-03-16T08:55:29;4.40;65.40
14049;DHT22;7099;53.922;10.728;2023-03-16T08:59:34;4.60;65.70
14049;DHT22;7099;53.922;10.728;2023-03-16T09:03:40;4.90;65.30
14049;DHT22;7099;53.922;10.728;2023-03-16T09:07:46;5.00;64.00
14049;DHT22;7099;53.922;10.728;2023-03-16T09:11:53;5.20;63.60
14049;DHT22;7099;53.922;10.728;2023-03-16T09:15:58;5.40;63.20
14049;DHT22;7099;53.922;10.728;2023-03-16T09:20:05;5.60;62.10
14049;DHT22;7099;53.922;10.728;2023-03-16T09:24:29;5.80;61.30
14049;DHT22;7099;53.922;10.728;2023-03-16T09:28:36;5.90;58.20
14049;DHT22;7099;53.922;10.728;2023-03-16T09:32:43;6.10;59.50
14049;DHT22;7099;53.922;10.728;2023-03-16T09:36:49;6.20;58.30
14049;DHT22;7099;53.922;10.728;2023-03-16T09:40:56;6.40;58.30
14049;DHT22;7099;53.922;10.728;2023-03-16T09:49:16;6.70;57.80
14049;DHT22;7099;53.922;10.728;2023-03-16T09:53:28;6.70;56.70
14049;DHT22;7099;53.922;10.728;2023-03-16T09:57:42;6.80;56.40
14049;DHT22;7099;53.922;10.728;2023-03-16T10:06:15;7.10;55.90
14049;DHT22;7099;53.922;10.728;2023-03-16T10:15:12;7.30;53.60
14049;DHT22;7099;53.922;10.728;2023-03-16T10:19:41;7.40;53.80
14049;DHT22;7099;53.922;10.728;2023-03-16T10:24:26;7.60;51.70
14049;DHT22;7099;53.922;10.728;2023-03-16T10:28:53;7.90;53.90
14049;DHT22;7099;53.922;10.728;2023-03-16T10:33:30;8.00;52.90
14049;DHT22;7099;53.922;10.728;2023-03-16T10:37:37;8.30;51.30
14049;DHT22;7099;53.922;10.728;2023-03-16T10:41:43;8.40;52.00
14049;DHT22;7099;53.922;10.728;2023-03-16T10:45:51;8.50;51.30
14049;DHT22;7099;53.922;10.728;2023-03-16T10:49:56;8.60;50.90
14049;DHT22;7099;53.922;10.728;2023-03-16T10:54:07;8.80;49.70
14049;DHT22;7099;53.922;10.728;2023-03-16T10:58:29;8.90;49.20
14049;DHT22;7099;53.922;10.728;2023-03-16T11:02:36;9.10;46.50
14049;DHT22;7099;53.922;10.728;2023-03-16T11:06:51;9.20;47.20
14049;DHT22;7099;53.922;10.728;2023-03-16T11:11:09;9.20;46.80
14049;DHT22;7099;53.922;10.728;2023-03-16T11:15:20;9.40;47.00
14049;DHT22;7099;53.922;10.728;2023-03-16T11:19:33;9.30;46.10
14049;DHT22;7099;53.922;10.728;2023-03-16T11:23:47;9.50;46.20
14049;DHT22;7099;53.922;10.728;2023-03-16T11:32:22;9.70;47.10
14049;DHT22;7099;53.922;10.728;2023-03-16T11:36:46;9.80;46.30
14049;DHT22;7099;53.922;10.728;2023-03-16T11:41:00;9.90;45.90
14049;DHT22;7099;53.922;10.728;2023-03-16T11:45:25;10.00;45.50
14049;DHT22;7099;53.922;10.728;2023-03-16T11:54:48;10.20;43.60
14049;DHT22;7099;53.922;10.728;2023-03-16T11:59:06;10.30;44.20
14049;DHT22;7099;53.922;10.728;2023-03-16T12:17:30;10.40;42.40
14049;DHT22;7099;53.922;10.728;2023-03-16T12:21:39;10.50;39.40
14049;DHT22;7099;53.922;10.728;2023-03-16T12:25:47;10.40;38.80
14049;DHT22;7099;53.922;10.728;2023-03-16T12:34:56;10.40;38.70
14049;DHT22;7099;53.922;10.728;2023-03-16T12:44:13;10.50;37.60
14049;DHT22;7099;53.922;10.728;2023-03-16T12:52:49;10.60;37.20
14049;DHT22;7099;53.922;10.728;2023-03-16T12:57:01;10.60;37.60
14049;DHT22;7099;53.922;10.728;2023-03-16T13:01:10;10.60;38.20
14049;DHT22;7099;53.922;10.728;2023-03-16T13:05:27;10.80;38.00
14049;DHT22;7099;53.922;10.728;2023-03-16T13:09:42;10.80;36.90
14049;DHT22;7099;53.922;10.728;2023-03-16T13:18:20;10.80;36.00
14049;DHT22;7099;53.922;10.728;2023-03-16T13:22:29;10.90;35.20
14049;DHT22;7099;53.922;10.728;2023-03-16T13:26:56;10.90;37.30
14049;DHT22;7099;53.922;10.728;2023-03-16T13:31:21;10.90;35.70
14049;DHT22;7099;53.922;10.728;2023-03-16T13:35:29;10.80;35.40
14049;DHT22;7099;53.922;10.728;2023-03-16T13:39:37;10.80;36.20
14049;DHT22;7099;53.922;10.728;2023-03-16T13:43:44;10.80;36.30
14049;DHT22;7099;53.922;10.728;2023-03-16T13:47:50;10.80;36.00
14049;DHT22;7099;53.922;10.728;2023-03-16T13:52:02;10.90;36.60
14049;DHT22;7099;53.922;10.728;2023-03-16T13:56:18;11.00;34.80
14049;DHT22;7099;53.922;10.728;2023-03-16T14:00:34;10.90;33.50
14049;DHT22;7099;53.922;10.728;2023-03-16T14:04:40;10.90;34.10
14049;DHT22;7099;53.922;10.728;2023-03-16T14:08:50;11.00;36.00
14049;DHT22;7099;53.922;10.728;2023-03-16T14:13:23;11.20;33.80
14049;DHT22;7099;53.922;10.728;2023-03-16T14:17:41;11.20;34.40
14049;DHT22;7099;53.922;10.728;2023-03-16T14:21:47;11.20;33.50
14049;DHT22;7099;53.922;10.728;2023-03-16T14:25:54;11.20;33.60
14049;DHT22;7099;53.922;10.728;2023-03-16T14:30:13;11.10;34.40
14049;DHT22;7099;53.922;10.728;2023-03-16T14:34:38;11.00;33.50
14049;DHT22;7099;53.922;10.728;2023-03-16T14:38:47;11.00;34.60
14049;DHT22;7099;53.922;10.728;2023-03-16T14:42:55;10.90;34.30
14049;DHT22;7099;53.922;10.728;2023-03-16T14:47:03;10.80;35.40
14049;DHT22;7099;53.922;10.728;2023-03-16T14:51:12;10.80;35.90
14049;DHT22;7099;53.922;10.728;2023-03-16T14:55:19;10.80;37.00
14049;DHT22;7099;53.922;10.728;2023-03-16T14:59:28;10.80;35.20
14049;DHT22;7099;53.922;10.728;2023-03-16T15:03:34;10.60;36.00
14049;DHT22;7099;53.922;10.728;2023-03-16T15:07:41;10.50;36.50
14049;DHT22;7099;53.922;10.728;2023-03-16T15:11:49;10.40;34.80
14049;DHT22;7099;53.922;10.728;2023-03-16T15:16:03;10.40;35.60
14049;DHT22;7099;53.922;10.728;2023-03-16T15:20:18;10.30;34.90
14049;DHT22;7099;53.922;10.728;2023-03-16T15:24:28;10.30;35.80
14049;DHT22;7099;53.922;10.728;2023-03-16T15:28:36;10.20;36.10
14049;DHT22;7099;53.922;10.728;2023-03-16T15:32:43;10.20;37.50
14049;DHT22;7099;53.922;10.728;2023-03-16T15:36:50;10.10;37.60
14049;DHT22;7099;53.922;10.728;2023-03-16T15:40:56;10.10;38.00
14049;DHT22;7099;53.922;10.728;2023-03-16T15:45:01;10.10;37.60
14049;DHT22;7099;53.922;10.728;2023-03-16T15:49:09;10.00;37.00
14049;DHT22;7099;53.922;10.728;2023-03-16T15:57:35;9.90;37.60
14049;DHT22;7099;53.922;10.728;2023-03-16T16:01:43;9.90;38.50
14049;DHT22;7099;53.922;10.728;2023-03-16T16:05:51;9.70;38.20
14049;DHT22;7099;53.922;10.728;2023-03-16T16:09:57;9.70;38.70
14049;DHT22;7099;53.922;10.728;2023-03-16T16:14:03;9.60;39.30
14049;DHT22;7099;53.922;10.728;2023-03-16T16:22:35;9.50;38.60
14049;DHT22;7099;53.922;10.728;2023-03-16T16:26:44;9.50;40.30
14049;DHT22;7099;53.922;10.728;2023-03-16T16:30:59;9.40;39.90
14049;DHT22;7099;53.922;10.728;2023-03-16T16:35:12;9.40;40.00
14049;DHT22;7099;53.922;10.728;2023-03-16T16:39:19;9.30;40.60
14049;DHT22;7099;53.922;10.728;2023-03-16T16:43:45;9.20;40.00
14049;DHT22;7099;53.922;10.728;2023-03-16T16:47:53;9.20;39.50
14049;DHT22;7099;53.922;10.728;2023-03-16T16:52:00;9.20;41.00
14049;DHT22;7099;53.922;10.728;2023-03-16T16:56:15;9.10;40.70
14049;DHT22;7099;53.922;10.728;2023-03-16T17:00:26;9.00;40.10
14049;DHT22;7099;53.922;10.728;2023-03-16T17:04:33;8.90;40.70
14049;DHT22;7099;53.922;10.728;2023-03-16T17:08:39;8.90;40.90
14049;DHT22;7099;53.922;10.728;2023-03-16T17:12:45;8.90;40.70
14049;DHT22;7099;53.922;10.728;2023-03-16T17:16:51;8.80;40.60
14049;DHT22;7099;53.922;10.728;2023-03-16T17:20:57;8.70;40.90
14049;DHT22;7099;53.922;10.728;2023-03-16T17:25:07;8.70;40.60
14049;DHT22;7099;53.922;10.728;2023-03-16T17:29:16;8.50;40.80
14049;DHT22;7099;53.922;10.728;2023-03-16T17:33:27;8.60;41.10
14049;DHT22;7099;53.922;10.728;2023-03-16T17:37:33;8.50;41.50
14049;DHT22;7099;53.922;10.728;2023-03-16T17:41:39;8.50;41.50
14049;DHT22;7099;53.922;10.728;2023-03-16T17:45:49;8.40;41.20
14049;DHT22;7099;53.922;10.728;2023-03-16T17:49:56;8.40;41.90
14049;DHT22;7099;53.922;10.728;2023-03-16T17:54:03;8.40;41.80
14049;DHT22;7099;53.922;10.728;2023-03-16T17:58:20;8.20;41.60
14049;DHT22;7099;53.922;10.728;2023-03-16T18:02:47;8.30;41.10
14049;DHT22;7099;53.922;10.728;2023-03-16T18:06:55;8.30;41.80
14049;DHT22;7099;53.922;10.728;2023-03-16T18:11:03;8.30;41.90
14049;DHT22;7099;53.922;10.728;2023-03-16T18:15:16;8.20;42.00
14049;DHT22;7099;53.922;10.728;2023-03-16T18:19:23;8.20;42.50
14049;DHT22;7099;53.922;10.728;2023-03-16T18:23:31;8.20;42.50
14049;DHT22;7099;53.922;10.728;2023-03-16T18:27:38;8.10;42.50
14049;DHT22;7099;53.922;10.728;2023-03-16T18:31:44;8.10;42.50
14049;DHT22;7099;53.922;10.728;2023-03-16T18:35:54;8.10;42.50
14049;DHT22;7099;53.922;10.728;2023-03-16T18:40:00;8.00;42.60
14049;DHT22;7099;53.922;10.728;2023-03-16T18:44:19;7.90;42.80
14049;DHT22;7099;53.922;10.728;2023-03-16T18:48:30;8.00;43.10
14049;DHT22;7099;53.922;10.728;2023-03-16T18:52:38;7.90;43.00
14049;DHT22;7099;53.922;10.728;2023-03-16T18:56:45;7.90;43.10
14049;DHT22;7099;53.922;10.728;2023-03-16T19:00:54;7.90;43.20
14049;DHT22;7099;53.922;10.728;2023-03-16T19:05:04;7.90;43.30
14049;DHT22;7099;53.922;10.728;2023-03-16T19:09:29;7.80;42.80
14049;DHT22;7099;53.922;10.728;2023-03-16T19:13:36;7.80;43.50
14049;DHT22;7099;53.922;10.728;2023-03-16T19:17:41;7.80;43.60
14049;DHT22;7099;53.922;10.728;2023-03-16T19:22:06;7.80;43.90
14049;DHT22;7099;53.922;10.728;2023-03-16T19:26:18;7.70;43.50
14049;DHT22;7099;53.922;10.728;2023-03-16T19:30:26;7.70;43.60
14049;DHT22;7099;53.922;10.728;2023-03-16T19:34:33;7.70;44.40
14049;DHT22;7099;53.922;10.728;2023-03-16T19:38:38;7.60;44.00
14049;DHT22;7099;53.922;10.728;2023-03-16T19:42:45;7.60;43.70
14049;DHT22;7099;53.922;10.728;2023-03-16T19:46:52;7.50;43.90
14049;DHT22;7099;53.922;10.728;2023-03-16T19:50:59;7.50;43.70
14049;DHT22;7099;53.922;10.728;2023-03-16T19:55:05;7.50;44.10
14049;DHT22;7099;53.922;10.728;2023-03-16T19:59:11;7.50;44.10
14049;DHT22;7099;53.922;10.728;2023-03-16T20:03:16;7.50;44.30
14049;DHT22;7099;53.922;10.728;2023-03-16T20:07:22;7.50;44.60
14049;DHT22;7099;53.922;10.728;2023-03-16T20:11:29;7.50;44.30
14049;DHT22;7099;53.922;10.728;2023-03-16T20:15:36;7.50;44.70
14049;DHT22;7099;53.922;10.728;2023-03-16T20:19:42;7.50;45.50
14049;DHT22;7099;53.922;10.728;2023-03-16T20:23:48;7.50;44.60
14049;DHT22;7099;53.922;10.728;2023-03-16T20:27:55;7.50;44.60
14049;DHT22;7099;53.922;10.728;2023-03-16T20:32:06;7.50;44.90
14049;DHT22;7099;53.922;10.728;2023-03-16T20:36:20;7.50;44.80
14049;DHT22;7099;53.922;10.728;2023-03-16T20:40:26;7.50;45.20
14049;DHT22;7099;53.922;10.728;2023-03-16T20:44:32;7.50;45.10
14049;DHT22;7099;53.922;10.728;2023-03-16T20:48:37;7.50;45.30
14049;DHT22;7099;53.922;10.728;2023-03-16T20:52:43;7.40;45.60
14049;DHT22;7099;53.922;10.728;2023-03-16T20:56:49;7.50;45.10
14049;DHT22;7099;53.922;10.728;2023-03-16T21:00:55;7.40;45.10
14049;DHT22;7099;53.922;10.728;2023-03-16T21:05:06;7.40;45.10
14049;DHT22;7099;53.922;10.728;2023-03-16T21:09:16;7.40;45.20
14049;DHT22;7099;53.922;10.728;2023-03-16T21:13:30;7.30;44.90
14049;DHT22;7099;53.922;10.728;2023-03-16T21:17:37;7.40;45.60
14049;DHT22;7099;53.922;10.728;2023-03-16T21:21:43;7.30;44.80
14049;DHT22;7099;53.922;10.728;2023-03-16T21:25:55;7.30;45.30
14049;DHT22;7099;53.922;10.728;2023-03-16T21:30:06;7.30;45.50
14049;DHT22;7099;53.922;10.728;2023-03-16T21:34:23;7.40;45.90
14049;DHT22;7099;53.922;10.728;2023-03-16T21:38:31;7.30;45.80
14049;DHT22;7099;53.922;10.728;2023-03-16T21:42:37;7.30;45.60
14049;DHT22;7099;53.922;10.728;2023-03-16T21:46:42;7.30;45.80
14049;DHT22;7099;53.922;10.728;2023-03-16T21:50:48;7.30;46.30
14049;DHT22;7099;53.922;10.728;2023-03-16T21:54:56;7.30;46.00
14049;DHT22;7099;53.922;10.728;2023-03-16T21:59:02;7.30;46.20
14049;DHT22;7099;53.922;10.728;2023-03-16T22:07:55;7.30;46.70
14049;DHT22;7099;53.922;10.728;2023-03-16T22:12:02;7.30;46.40
14049;DHT22;7099;53.922;10.728;2023-03-16T22:16:13;7.20;46.50
14049;DHT22;7099;53.922;10.728;2023-03-16T22:20:25;7.20;46.60
14049;DHT22;7099;53.922;10.728;2023-03-16T22:24:31;7.20;46.70
14049;DHT22;7099;53.922;10.728;2023-03-16T22:28:39;7.20;46.80
14049;DHT22;7099;53.922;10.728;2023-03-16T22:32:46;7.30;46.90
14049;DHT22;7099;53.922;10.728;2023-03-16T22:36:55;7.20;47.10
14049;DHT22;7099;53.922;10.728;2023-03-16T22:41:01;7.20;47.10
14049;DHT22;7099;53.922;10.728;2023-03-16T22:45:16;7.20;47.30
14049;DHT22;7099;53.922;10.728;2023-03-16T22:49:26;7.20;47.30
14049;DHT22;7099;53.922;10.728;2023-03-16T22:53:40;7.10;47.50
14049;DHT22;7099;53.922;10.728;2023-03-16T22:57:50;7.10;47.60
14049;DHT22;7099;53.922;10.728;2023-03-16T23:02:05;7.10;47.90
14049;DHT22;7099;53.922;10.728;2023-03-16T23:06:16;7.10;48.10
14049;DHT22;7099;53.922;10.728;2023-03-16T23:10:25;7.00;48.30
14049;DHT22;7099;53.922;10.728;2023-03-16T23:14:34;7.00;48.40
14049;DHT22;7099;53.922;10.728;2023-03-16T23:18:42;6.90;48.50
14049;DHT22;7099;53.922;10.728;2023-03-16T23:22:47;6.90;48.90
14049;DHT22;7099;53.922;10.728;2023-03-16T23:26:53;6.90;48.60
14049;DHT22;7099;53.922;10.728;2023-03-16T23:30:59;6.90;48.90
14049;DHT22;7099;53.922;10.728;2023-03-16T23:35:16;6.80;49.00
14049;DHT22;7099;53.922;10.728;2023-03-16T23:39:23;6.80;49.10
14049;DHT22;7099;53.922;10.728;2023-03-16T23:43:29;6.80;49.30
14049;DHT22;7099;53.922;10.728;2023-03-16T23:47:35;6.70;49.30
14049;DHT22;7099;53.922;10.728;2023-03-16T23:51:41;6.80;49.60
14049;DHT22;7099;53.922;10.728;2023-03-16T23:55:47;6.70;49.60
14049;DHT22;7099;53.922;10.728;2023-03-16T23:59:53;6.70;49.80
